sensor_id;sensor_type;location;lat;lon;timestamp;P1;P2;P0
62591;PMS5003;48659;41.622;2.276;2022-07-12T00:01:11;13;13;
62591;PMS5003;48659;41.622;2.276;2022-07-12T00:03:38;14;13;
62591;PMS5003;48659;41.622;2.276;2022-07-12T00:06:05;15;15;
62591;PMS5003;48659;41.622;2.276;2022-07-12T00:08:32;14;13;
62591;PMS5003;48659;41.622;2.276;2022-07-12T00:11:00;18;16;
62591;PMS5003;48659;41.622;2.276;2022-07-12T00:13:27;13;13;
62591;PMS5003;48659;41.622;2.276;2022-07-12T00:15:54;18;18;
62591;PMS5003;48659;41.622;2.276;2022-07-12T00:18:21;21;19;
62591;PMS5003;48659;41.622;2.276;2022-07-12T00:20:49;25;24;
62591;PMS5003;48659;41.622;2.276;2022-07-12T00:23:17;23;23;
62591;PMS5003;48659;41.622;2.276;2022-07-12T00:25:45;19;19;
62591;PMS5003;48659;41.622;2.276;2022-07-12T00:28:13;24;22;
62591;PMS5003;48659;41.622;2.276;2022-07-12T00:30:40;18;18;
62591;PMS5003;48659;41.622;2.276;2022-07-12T00:33:08;16;16;
62591;PMS5003;48659;41.622;2.276;2022-07-12T00:35:35;21;18;
62591;PMS5003;48659;41.622;2.276;2022-07-12T00:38:02;16;15;
62591;PMS5003;48659;41.622;2.276;2022-07-12T00:40:29;18;18;
62591;PMS5003;48659;41.622;2.276;2022-07-12T00:42:56;20;20;
62591;PMS5003;48659;41.622;2.276;2022-07-12T00:45:23;17;16;
62591;PMS5003;48659;41.622;2.276;2022-07-12T00:47:50;18;16;
62591;PMS5003;48659;41.622;2.276;2022-07-12T00:50:20;15;15;
62591;PMS5003;48659;41.622;2.276;2022-07-12T00:52:50;18;15;
62591;PMS5003;48659;41.622;2.276;2022-07-12T00:55:19;17;17;
62591;PMS5003;48659;41.622;2.276;2022-07-12T00:57:48;21;20;
62591;PMS5003;48659;41.622;2.276;2022-07-12T01:00:17;27;27;
62591;PMS5003;48659;41.622;2.276;2022-07-12T01:02:46;23;23;
62591;PMS5003;48659;41.622;2.276;2022-07-12T01:05:13;26;23;
62591;PMS5003;48659;41.622;2.276;2022-07-12T01:07:41;29;29;
62591;PMS5003;48659;41.622;2.276;2022-07-12T01:10:11;25;25;
62591;PMS5003;48659;41.622;2.276;2022-07-12T01:12:39;28;27;
62591;PMS5003;48659;41.622;2.276;2022-07-12T01:15:07;25;25;
62591;PMS5003;48659;41.622;2.276;2022-07-12T01:17:36;25;24;
62591;PMS5003;48659;41.622;2.276;2022-07-12T01:20:05;29;26;
62591;PMS5003;48659;41.622;2.276;2022-07-12T01:22:34;25;22;
62591;PMS5003;48659;41.622;2.276;2022-07-12T01:25:03;21;21;
62591;PMS5003;48659;41.622;2.276;2022-07-12T01:27:32;20;20;
62591;PMS5003;48659;41.622;2.276;2022-07-12T01:30:00;31;29;
62591;PMS5003;48659;41.622;2.276;2022-07-12T01:32:29;22;22;
62591;PMS5003;48659;41.622;2.276;2022-07-12T01:34:57;22;22;
62591;PMS5003;48659;41.622;2.276;2022-07-12T01:37:28;19;17;
62591;PMS5003;48659;41.622;2.276;2022-07-12T01:39:58;23;20;
62591;PMS5003;48659;41.622;2.276;2022-07-12T01:42:29;20;19;
62591;PMS5003;48659;41.622;2.276;2022-07-12T01:44:58;20;20;
62591;PMS5003;48659;41.622;2.276;2022-07-12T01:47:30;19;19;
62591;PMS5003;48659;41.622;2.276;2022-07-12T01:49:59;21;21;
62591;PMS5003;48659;41.622;2.276;2022-07-12T01:52:26;23;21;
62591;PMS5003;48659;41.622;2.276;2022-07-12T01:54:54;21;21;
62591;PMS5003;48659;41.622;2.276;2022-07-12T01:57:23;21;20;
62591;PMS5003;48659;41.622;2.276;2022-07-12T01:59:53;19;19;
62591;PMS5003;48659;41.622;2.276;2022-07-12T02:02:35;18;18;
62591;PMS5003;48659;41.622;2.276;2022-07-12T02:05:04;24;19;
62591;PMS5003;48659;41.622;2.276;2022-07-12T02:07:32;21;20;
62591;PMS5003;48659;41.622;2.276;2022-07-12T02:09:59;22;22;
62591;PMS5003;48659;41.622;2.276;2022-07-12T02:12:27;22;22;
62591;PMS5003;48659;41.622;2.276;2022-07-12T02:14:54;24;24;
62591;PMS5003;48659;41.622;2.276;2022-07-12T02:17:22;26;22;
62591;PMS5003;48659;41.622;2.276;2022-07-12T02:19:49;21;21;
62591;PMS5003;48659;41.622;2.276;2022-07-12T02:22:17;24;21;
62591;PMS5003;48659;41.622;2.276;2022-07-12T02:24:45;21;19;
62591;PMS5003;48659;41.622;2.276;2022-07-12T02:30:38;24;20;
62591;PMS5003;48659;41.622;2.276;2022-07-12T02:33:05;24;20;
62591;PMS5003;48659;41.622;2.276;2022-07-12T02:35:39;25;24;
62591;PMS5003;48659;41.622;2.276;2022-07-12T02:38:07;25;23;
62591;PMS5003;48659;41.622;2.276;2022-07-12T02:40:42;25;23;
62591;PMS5003;48659;41.622;2.276;2022-07-12T02:43:09;24;23;
62591;PMS5003;48659;41.622;2.276;2022-07-12T02:45:40;24;23;
62591;PMS5003;48659;41.622;2.276;2022-07-12T02:48:07;28;27;
62591;PMS5003;48659;41.622;2.276;2022-07-12T02:50:34;23;23;
62591;PMS5003;48659;41.622;2.276;2022-07-12T02:53:02;23;22;
62591;PMS5003;48659;41.622;2.276;2022-07-12T02:55:30;23;23;
62591;PMS5003;48659;41.622;2.276;2022-07-12T02:57:58;23;23;
62591;PMS5003;48659;41.622;2.276;2022-07-12T03:00:25;24;23;
62591;PMS5003;48659;41.622;2.276;2022-07-12T03:02:52;25;23;
62591;PMS5003;48659;41.622;2.276;2022-07-12T03:05:20;23;21;
62591;PMS5003;48659;41.622;2.276;2022-07-12T03:07:47;32;30;
62591;PMS5003;48659;41.622;2.276;2022-07-12T03:10:14;26;25;
62591;PMS5003;48659;41.622;2.276;2022-07-12T03:12:42;24;22;
62591;PMS5003;48659;41.622;2.276;2022-07-12T03:15:09;22;22;
62591;PMS5003;48659;41.622;2.276;2022-07-12T03:17:41;21;21;
62591;PMS5003;48659;41.622;2.276;2022-07-12T03:20:09;24;23;
62591;PMS5003;48659;41.622;2.276;2022-07-12T03:22:37;22;22;
62591;PMS5003;48659;41.622;2.276;2022-07-12T03:25:04;20;20;
62591;PMS5003;48659;41.622;2.276;2022-07-12T03:27:32;21;21;
62591;PMS5003;48659;41.622;2.276;2022-07-12T03:30:01;17;17;
62591;PMS5003;48659;41.622;2.276;2022-07-12T03:32:29;20;17;
62591;PMS5003;48659;41.622;2.276;2022-07-12T03:34:57;26;22;
62591;PMS5003;48659;41.622;2.276;2022-07-12T03:37:24;17;15;
62591;PMS5003;48659;41.622;2.276;2022-07-12T03:39:51;20;19;
62591;PMS5003;48659;41.622;2.276;2022-07-12T03:42:18;18;18;
62591;PMS5003;48659;41.622;2.276;2022-07-12T03:44:44;18;18;
62591;PMS5003;48659;41.622;2.276;2022-07-12T03:47:11;16;16;
62591;PMS5003;48659;41.622;2.276;2022-07-12T03:49:41;19;19;
62591;PMS5003;48659;41.622;2.276;2022-07-12T03:52:08;19;19;
62591;PMS5003;48659;41.622;2.276;2022-07-12T03:54:35;22;21;
62591;PMS5003;48659;41.622;2.276;2022-07-12T03:57:03;21;20;
62591;PMS5003;48659;41.622;2.276;2022-07-12T03:59:30;24;20;
62591;PMS5003;48659;41.622;2.276;2022-07-12T04:01:58;26;25;
62591;PMS5003;48659;41.622;2.276;2022-07-12T04:04:25;26;22;
62591;PMS5003;48659;41.622;2.276;2022-07-12T04:06:53;28;23;
62591;PMS5003;48659;41.622;2.276;2022-07-12T04:09:20;30;28;
62591;PMS5003;48659;41.622;2.276;2022-07-12T04:11:47;27;23;
62591;PMS5003;48659;41.622;2.276;2022-07-12T04:14:14;27;24;
62591;PMS5003;48659;41.622;2.276;2022-07-12T04:16:42;22;19;
62591;PMS5003;48659;41.622;2.276;2022-07-12T04:19:09;22;20;
62591;PMS5003;48659;41.622;2.276;2022-07-12T04:21:41;19;18;
62591;PMS5003;48659;41.622;2.276;2022-07-12T04:24:08;24;21;
62591;PMS5003;48659;41.622;2.276;2022-07-12T04:26:36;28;26;
62591;PMS5003;48659;41.622;2.276;2022-07-12T04:29:04;24;22;
62591;PMS5003;48659;41.622;2.276;2022-07-12T04:31:30;23;19;
62591;PMS5003;48659;41.622;2.276;2022-07-12T04:33:59;23;22;
62591;PMS5003;48659;41.622;2.276;2022-07-12T04:36:27;26;24;
62591;PMS5003;48659;41.622;2.276;2022-07-12T04:38:54;24;23;
62591;PMS5003;48659;41.622;2.276;2022-07-12T04:41:21;23;20;
62591;PMS5003;48659;41.622;2.276;2022-07-12T04:43:48;22;22;
62591;PMS5003;48659;41.622;2.276;2022-07-12T04:46:16;22;22;
62591;PMS5003;48659;41.622;2.276;2022-07-12T04:48:43;18;18;
62591;PMS5003;48659;41.622;2.276;2022-07-12T04:51:10;18;18;
62591;PMS5003;48659;41.622;2.276;2022-07-12T04:53:38;20;19;
62591;PMS5003;48659;41.622;2.276;2022-07-12T04:56:05;24;21;
62591;PMS5003;48659;41.622;2.276;2022-07-12T04:58:33;23;21;
62591;PMS5003;48659;41.622;2.276;2022-07-12T05:01:00;18;18;
62591;PMS5003;48659;41.622;2.276;2022-07-12T05:03:28;22;20;
62591;PMS5003;48659;41.622;2.276;2022-07-12T05:05:55;21;20;
62591;PMS5003;48659;41.622;2.276;2022-07-12T05:08:23;22;22;
62591;PMS5003;48659;41.622;2.276;2022-07-12T05:10:50;32;32;
62591;PMS5003;48659;41.622;2.276;2022-07-12T05:13:17;27;25;
62591;PMS5003;48659;41.622;2.276;2022-07-12T05:15:44;31;30;
62591;PMS5003;48659;41.622;2.276;2022-07-12T05:18:12;29;26;
62591;PMS5003;48659;41.622;2.276;2022-07-12T05:20:40;30;30;
62591;PMS5003;48659;41.622;2.276;2022-07-12T05:23:07;27;25;
62591;PMS5003;48659;41.622;2.276;2022-07-12T05:25:34;28;25;
62591;PMS5003;48659;41.622;2.276;2022-07-12T05:28:01;28;27;
62591;PMS5003;48659;41.622;2.276;2022-07-12T05:30:28;21;21;
62591;PMS5003;48659;41.622;2.276;2022-07-12T05:32:55;24;23;
62591;PMS5003;48659;41.622;2.276;2022-07-12T05:35:23;21;21;
62591;PMS5003;48659;41.622;2.276;2022-07-12T05:37:51;22;22;
62591;PMS5003;48659;41.622;2.276;2022-07-12T05:40:18;24;22;
62591;PMS5003;48659;41.622;2.276;2022-07-12T05:42:46;20;18;
62591;PMS5003;48659;41.622;2.276;2022-07-12T05:45:13;22;21;
62591;PMS5003;48659;41.622;2.276;2022-07-12T05:47:40;27;27;
62591;PMS5003;48659;41.622;2.276;2022-07-12T05:50:08;23;22;
62591;PMS5003;48659;41.622;2.276;2022-07-12T05:52:35;22;21;
62591;PMS5003;48659;41.622;2.276;2022-07-12T05:55:04;24;22;
62591;PMS5003;48659;41.622;2.276;2022-07-12T05:57:32;28;28;
62591;PMS5003;48659;41.622;2.276;2022-07-12T06:00:00;22;22;
62591;PMS5003;48659;41.622;2.276;2022-07-12T06:02:28;23;20;
62591;PMS5003;48659;41.622;2.276;2022-07-12T06:04:55;22;20;
62591;PMS5003;48659;41.622;2.276;2022-07-12T06:07:23;17;16;
62591;PMS5003;48659;41.622;2.276;2022-07-12T06:09:50;25;23;
62591;PMS5003;48659;41.622;2.276;2022-07-12T06:12:18;24;24;
62591;PMS5003;48659;41.622;2.276;2022-07-12T06:14:46;20;20;
62591;PMS5003;48659;41.622;2.276;2022-07-12T06:17:13;23;22;
62591;PMS5003;48659;41.622;2.276;2022-07-12T06:19:41;20;20;
62591;PMS5003;48659;41.622;2.276;2022-07-12T06:22:08;20;20;
62591;PMS5003;48659;41.622;2.276;2022-07-12T06:24:35;18;17;
62591;PMS5003;48659;41.622;2.276;2022-07-12T06:27:04;16;16;
62591;PMS5003;48659;41.622;2.276;2022-07-12T06:29:32;19;19;
62591;PMS5003;48659;41.622;2.276;2022-07-12T06:31:59;21;19;
62591;PMS5003;48659;41.622;2.276;2022-07-12T06:34:27;19;19;
62591;PMS5003;48659;41.622;2.276;2022-07-12T06:36:54;17;17;
62591;PMS5003;48659;41.622;2.276;2022-07-12T06:39:22;19;19;
62591;PMS5003;48659;41.622;2.276;2022-07-12T06:41:50;20;20;
62591;PMS5003;48659;41.622;2.276;2022-07-12T06:44:17;18;18;
62591;PMS5003;48659;41.622;2.276;2022-07-12T06:46:44;20;18;
62591;PMS5003;48659;41.622;2.276;2022-07-12T06:49:12;22;21;
62591;PMS5003;48659;41.622;2.276;2022-07-12T06:51:39;18;17;
62591;PMS5003;48659;41.622;2.276;2022-07-12T06:54:06;19;19;
62591;PMS5003;48659;41.622;2.276;2022-07-12T06:56:34;18;17;
62591;PMS5003;48659;41.622;2.276;2022-07-12T06:59:02;21;21;
62591;PMS5003;48659;41.622;2.276;2022-07-12T07:01:30;18;18;
62591;PMS5003;48659;41.622;2.276;2022-07-12T07:03:57;18;18;
62591;PMS5003;48659;41.622;2.276;2022-07-12T07:06:24;18;18;
62591;PMS5003;48659;41.622;2.276;2022-07-12T07:08:53;20;20;
62591;PMS5003;48659;41.622;2.276;2022-07-12T07:11:20;19;19;
62591;PMS5003;48659;41.622;2.276;2022-07-12T07:13:47;21;19;
62591;PMS5003;48659;41.622;2.276;2022-07-12T07:16:14;20;20;
62591;PMS5003;48659;41.622;2.276;2022-07-12T07:18:41;19;19;
62591;PMS5003;48659;41.622;2.276;2022-07-12T07:21:09;19;19;
62591;PMS5003;48659;41.622;2.276;2022-07-12T07:23:36;18;17;
62591;PMS5003;48659;41.622;2.276;2022-07-12T07:26:03;18;18;
62591;PMS5003;48659;41.622;2.276;2022-07-12T07:28:32;17;17;
62591;PMS5003;48659;41.622;2.276;2022-07-12T07:28:40;15;15;
62591;PMS5003;48659;41.622;2.276;2022-07-12T07:31:08;17;17;
62591;PMS5003;48659;41.622;2.276;2022-07-12T07:33:35;17;17;
62591;PMS5003;48659;41.622;2.276;2022-07-12T07:36:03;23;22;
62591;PMS5003;48659;41.622;2.276;2022-07-12T07:38:30;21;18;
62591;PMS5003;48659;41.622;2.276;2022-07-12T07:40:57;19;19;
62591;PMS5003;48659;41.622;2.276;2022-07-12T07:43:24;18;18;
62591;PMS5003;48659;41.622;2.276;2022-07-12T07:45:52;16;16;
62591;PMS5003;48659;41.622;2.276;2022-07-12T07:48:21;19;19;
62591;PMS5003;48659;41.622;2.276;2022-07-12T07:50:48;23;22;
62591;PMS5003;48659;41.622;2.276;2022-07-12T07:53:15;20;19;
62591;PMS5003;48659;41.622;2.276;2022-07-12T07:55:43;22;22;
62591;PMS5003;48659;41.622;2.276;2022-07-12T07:58:10;18;18;
62591;PMS5003;48659;41.622;2.276;2022-07-12T08:00:39;24;23;
62591;PMS5003;48659;41.622;2.276;2022-07-12T08:03:06;22;19;
62591;PMS5003;48659;41.622;2.276;2022-07-12T08:05:34;22;20;
62591;PMS5003;48659;41.622;2.276;2022-07-12T08:08:01;19;19;
62591;PMS5003;48659;41.622;2.276;2022-07-12T08:10:29;18;18;
62591;PMS5003;48659;41.622;2.276;2022-07-12T08:12:57;19;18;
62591;PMS5003;48659;41.622;2.276;2022-07-12T08:15:25;17;17;
62591;PMS5003;48659;41.622;2.276;2022-07-12T08:17:52;21;20;
62591;PMS5003;48659;41.622;2.276;2022-07-12T08:20:20;20;19;
62591;PMS5003;48659;41.622;2.276;2022-07-12T08:22:48;18;18;
62591;PMS5003;48659;41.622;2.276;2022-07-12T08:25:15;21;21;
62591;PMS5003;48659;41.622;2.276;2022-07-12T08:27:43;24;21;
62591;PMS5003;48659;41.622;2.276;2022-07-12T08:30:10;19;19;
62591;PMS5003;48659;41.622;2.276;2022-07-12T08:32:42;16;16;
62591;PMS5003;48659;41.622;2.276;2022-07-12T08:35:10;19;19;
62591;PMS5003;48659;41.622;2.276;2022-07-12T08:37:37;18;17;
62591;PMS5003;48659;41.622;2.276;2022-07-12T08:40:05;21;21;
62591;PMS5003;48659;41.622;2.276;2022-07-12T08:42:35;19;19;
62591;PMS5003;48659;41.622;2.276;2022-07-12T08:45:07;20;20;
62591;PMS5003;48659;41.622;2.276;2022-07-12T08:47:35;19;19;
62591;PMS5003;48659;41.622;2.276;2022-07-12T08:50:13;20;19;
62591;PMS5003;48659;41.622;2.276;2022-07-12T08:52:42;19;19;
62591;PMS5003;48659;41.622;2.276;2022-07-12T08:55:17;19;19;
62591;PMS5003;48659;41.622;2.276;2022-07-12T08:57:46;24;23;
62591;PMS5003;48659;41.622;2.276;2022-07-12T09:00:14;18;18;
62591;PMS5003;48659;41.622;2.276;2022-07-12T09:02:43;18;16;
62591;PMS5003;48659;41.622;2.276;2022-07-12T09:05:12;22;21;
62591;PMS5003;48659;41.622;2.276;2022-07-12T09:07:41;21;19;
62591;PMS5003;48659;41.622;2.276;2022-07-12T09:10:10;21;20;
62591;PMS5003;48659;41.622;2.276;2022-07-12T09:12:38;18;16;
62591;PMS5003;48659;41.622;2.276;2022-07-12T09:15:14;19;19;
62591;PMS5003;48659;41.622;2.276;2022-07-12T09:17:54;19;19;
62591;PMS5003;48659;41.622;2.276;2022-07-12T09:20:25;19;17;
62591;PMS5003;48659;41.622;2.276;2022-07-12T09:22:54;17;17;
62591;PMS5003;48659;41.622;2.276;2022-07-12T09:25:23;20;19;
62591;PMS5003;48659;41.622;2.276;2022-07-12T09:27:52;18;18;
62591;PMS5003;48659;41.622;2.276;2022-07-12T09:30:21;18;18;
62591;PMS5003;48659;41.622;2.276;2022-07-12T09:32:50;17;17;
62591;PMS5003;48659;41.622;2.276;2022-07-12T09:35:19;16;16;
62591;PMS5003;48659;41.622;2.276;2022-07-12T09:37:46;17;17;
62591;PMS5003;48659;41.622;2.276;2022-07-12T09:40:14;20;20;
62591;PMS5003;48659;41.622;2.276;2022-07-12T09:42:42;17;15;
62591;PMS5003;48659;41.622;2.276;2022-07-12T09:45:10;13;13;
62591;PMS5003;48659;41.622;2.276;2022-07-12T09:47:37;13;13;
62591;PMS5003;48659;41.622;2.276;2022-07-12T09:50:06;12;12;
62591;PMS5003;48659;41.622;2.276;2022-07-12T09:52:35;15;15;
62591;PMS5003;48659;41.622;2.276;2022-07-12T09:55:04;18;17;
62591;PMS5003;48659;41.622;2.276;2022-07-12T09:57:41;15;15;
62591;PMS5003;48659;41.622;2.276;2022-07-12T10:00:10;16;16;
62591;PMS5003;48659;41.622;2.276;2022-07-12T10:02:41;13;13;
62591;PMS5003;48659;41.622;2.276;2022-07-12T10:05:09;15;12;
62591;PMS5003;48659;41.622;2.276;2022-07-12T10:07:37;12;12;
62591;PMS5003;48659;41.622;2.276;2022-07-12T10:10:04;16;13;
62591;PMS5003;48659;41.622;2.276;2022-07-12T10:12:33;15;15;
62591;PMS5003;48659;41.622;2.276;2022-07-12T10:15:02;15;15;
62591;PMS5003;48659;41.622;2.276;2022-07-12T10:17:34;13;13;
62591;PMS5003;48659;41.622;2.276;2022-07-12T10:20:19;17;15;
62591;PMS5003;48659;41.622;2.276;2022-07-12T10:22:48;15;14;
62591;PMS5003;48659;41.622;2.276;2022-07-12T10:25:31;16;15;
62591;PMS5003;48659;41.622;2.276;2022-07-12T10:28:01;16;16;
62591;PMS5003;48659;41.622;2.276;2022-07-12T10:30:29;16;15;
62591;PMS5003;48659;41.622;2.276;2022-07-12T10:32:58;17;17;
62591;PMS5003;48659;41.622;2.276;2022-07-12T10:35:26;17;17;
62591;PMS5003;48659;41.622;2.276;2022-07-12T10:38:27;17;17;
62591;PMS5003;48659;41.622;2.276;2022-07-12T10:40:56;17;17;
62591;PMS5003;48659;41.622;2.276;2022-07-12T10:43:24;17;17;
62591;PMS5003;48659;41.622;2.276;2022-07-12T10:45:53;16;16;
62591;PMS5003;48659;41.622;2.276;2022-07-12T10:48:30;16;16;
62591;PMS5003;48659;41.622;2.276;2022-07-12T10:50:58;15;13;
62591;PMS5003;48659;41.622;2.276;2022-07-12T10:53:27;15;15;
62591;PMS5003;48659;41.622;2.276;2022-07-12T10:56:28;17;16;
62591;PMS5003;48659;41.622;2.276;2022-07-12T10:58:56;14;14;
62591;PMS5003;48659;41.622;2.276;2022-07-12T11:01:25;16;16;
62591;PMS5003;48659;41.622;2.276;2022-07-12T11:03:54;14;14;
62591;PMS5003;48659;41.622;2.276;2022-07-12T11:06:23;15;15;
62591;PMS5003;48659;41.622;2.276;2022-07-12T11:08:52;17;14;
62591;PMS5003;48659;41.622;2.276;2022-07-12T11:11:22;13;13;
62591;PMS5003;48659;41.622;2.276;2022-07-12T11:13:52;14;14;
62591;PMS5003;48659;41.622;2.276;2022-07-12T11:16:21;17;15;
62591;PMS5003;48659;41.622;2.276;2022-07-12T11:18:50;19;17;
62591;PMS5003;48659;41.622;2.276;2022-07-12T11:21:18;17;17;
62591;PMS5003;48659;41.622;2.276;2022-07-12T11:23:47;23;20;
62591;PMS5003;48659;41.622;2.276;2022-07-12T11:26:15;17;17;
62591;PMS5003;48659;41.622;2.276;2022-07-12T11:28:44;17;17;
62591;PMS5003;48659;41.622;2.276;2022-07-12T11:31:12;25;22;
62591;PMS5003;48659;41.622;2.276;2022-07-12T11:33:40;17;17;
62591;PMS5003;48659;41.622;2.276;2022-07-12T11:36:11;22;21;
62591;PMS5003;48659;41.622;2.276;2022-07-12T11:38:39;18;17;
62591;PMS5003;48659;41.622;2.276;2022-07-12T11:41:08;17;17;
62591;PMS5003;48659;41.622;2.276;2022-07-12T11:43:37;17;17;
62591;PMS5003;48659;41.622;2.276;2022-07-12T11:46:06;16;16;
62591;PMS5003;48659;41.622;2.276;2022-07-12T11:48:35;19;17;
62591;PMS5003;48659;41.622;2.276;2022-07-12T11:51:04;19;19;
62591;PMS5003;48659;41.622;2.276;2022-07-12T11:53:33;21;20;
62591;PMS5003;48659;41.622;2.276;2022-07-12T11:56:02;17;17;
62591;PMS5003;48659;41.622;2.276;2022-07-12T11:58:33;15;15;
62591;PMS5003;48659;41.622;2.276;2022-07-12T12:01:01;17;17;
62591;PMS5003;48659;41.622;2.276;2022-07-12T12:03:28;17;15;
62591;PMS5003;48659;41.622;2.276;2022-07-12T12:05:56;17;16;
62591;PMS5003;48659;41.622;2.276;2022-07-12T12:08:24;19;18;
62591;PMS5003;48659;41.622;2.276;2022-07-12T12:10:52;13;13;
62591;PMS5003;48659;41.622;2.276;2022-07-12T12:13:21;16;14;
62591;PMS5003;48659;41.622;2.276;2022-07-12T12:15:51;17;16;
62591;PMS5003;48659;41.622;2.276;2022-07-12T12:18:30;17;16;
62591;PMS5003;48659;41.622;2.276;2022-07-12T12:21:04;18;16;
62591;PMS5003;48659;41.622;2.276;2022-07-12T12:23:41;17;17;
62591;PMS5003;48659;41.622;2.276;2022-07-12T12:26:09;16;16;
62591;PMS5003;48659;41.622;2.276;2022-07-12T12:28:40;18;17;
62591;PMS5003;48659;41.622;2.276;2022-07-12T12:31:14;14;14;
62591;PMS5003;48659;41.622;2.276;2022-07-12T12:33:44;17;17;
62591;PMS5003;48659;41.622;2.276;2022-07-12T12:36:13;13;13;
62591;PMS5003;48659;41.622;2.276;2022-07-12T12:38:42;17;17;
62591;PMS5003;48659;41.622;2.276;2022-07-12T12:41:10;16;16;
62591;PMS5003;48659;41.622;2.276;2022-07-12T12:43:38;15;15;
62591;PMS5003;48659;41.622;2.276;2022-07-12T12:46:06;15;14;
62591;PMS5003;48659;41.622;2.276;2022-07-12T12:48:45;15;15;
62591;PMS5003;48659;41.622;2.276;2022-07-12T12:51:14;15;15;
62591;PMS5003;48659;41.622;2.276;2022-07-12T12:53:41;14;14;
62591;PMS5003;48659;41.622;2.276;2022-07-12T12:56:10;14;13;
62591;PMS5003;48659;41.622;2.276;2022-07-12T12:58:39;14;12;
62591;PMS5003;48659;41.622;2.276;2022-07-12T13:01:07;16;16;
62591;PMS5003;48659;41.622;2.276;2022-07-12T13:03:35;15;14;
62591;PMS5003;48659;41.622;2.276;2022-07-12T13:06:03;14;14;
62591;PMS5003;48659;41.622;2.276;2022-07-12T13:08:30;13;13;
62591;PMS5003;48659;41.622;2.276;2022-07-12T13:10:59;17;14;
62591;PMS5003;48659;41.622;2.276;2022-07-12T13:13:26;17;17;
62591;PMS5003;48659;41.622;2.276;2022-07-12T13:15:54;16;16;
62591;PMS5003;48659;41.622;2.276;2022-07-12T13:18:20;15;15;
62591;PMS5003;48659;41.622;2.276;2022-07-12T13:20:48;12;12;
62591;PMS5003;48659;41.622;2.276;2022-07-12T13:23:16;13;11;
62591;PMS5003;48659;41.622;2.276;2022-07-12T13:25:43;13;12;
62591;PMS5003;48659;41.622;2.276;2022-07-12T13:28:11;17;17;
62591;PMS5003;48659;41.622;2.276;2022-07-12T13:30:41;15;15;
62591;PMS5003;48659;41.622;2.276;2022-07-12T13:33:09;15;14;
62591;PMS5003;48659;41.622;2.276;2022-07-12T13:35:42;12;12;
62591;PMS5003;48659;41.622;2.276;2022-07-12T13:38:09;15;15;
62591;PMS5003;48659;41.622;2.276;2022-07-12T13:40:37;12;12;
62591;PMS5003;48659;41.622;2.276;2022-07-12T13:43:05;15;14;
62591;PMS5003;48659;41.622;2.276;2022-07-12T13:45:40;13;13;
62591;PMS5003;48659;41.622;2.276;2022-07-12T13:48:08;11;11;
62591;PMS5003;48659;41.622;2.276;2022-07-12T13:50:35;15;13;
62591;PMS5003;48659;41.622;2.276;2022-07-12T13:53:02;14;12;
62591;PMS5003;48659;41.622;2.276;2022-07-12T13:55:30;15;14;
62591;PMS5003;48659;41.622;2.276;2022-07-12T13:57:57;13;13;
62591;PMS5003;48659;41.622;2.276;2022-07-12T14:00:24;13;13;
62591;PMS5003;48659;41.622;2.276;2022-07-12T14:02:52;12;12;
62591;PMS5003;48659;41.622;2.276;2022-07-12T14:05:20;13;12;
62591;PMS5003;48659;41.622;2.276;2022-07-12T14:07:48;11;10;
62591;PMS5003;48659;41.622;2.276;2022-07-12T14:10:16;17;14;
62591;PMS5003;48659;41.622;2.276;2022-07-12T14:12:44;11;10;
62591;PMS5003;48659;41.622;2.276;2022-07-12T14:15:11;10;10;
62591;PMS5003;48659;41.622;2.276;2022-07-12T14:17:42;12;11;
62591;PMS5003;48659;41.622;2.276;2022-07-12T14:20:11;12;12;
62591;PMS5003;48659;41.622;2.276;2022-07-12T14:22:40;14;12;
62591;PMS5003;48659;41.622;2.276;2022-07-12T14:25:08;10;10;
62591;PMS5003;48659;41.622;2.276;2022-07-12T14:27:36;12;11;
62591;PMS5003;48659;41.622;2.276;2022-07-12T14:30:06;13;12;
62591;PMS5003;48659;41.622;2.276;2022-07-12T14:32:35;9;9;
62591;PMS5003;48659;41.622;2.276;2022-07-12T14:35:04;12;11;
62591;PMS5003;48659;41.622;2.276;2022-07-12T14:37:33;11;11;
62591;PMS5003;48659;41.622;2.276;2022-07-12T14:40:02;13;13;
62591;PMS5003;48659;41.622;2.276;2022-07-12T14:42:31;10;10;
62591;PMS5003;48659;41.622;2.276;2022-07-12T14:44:59;12;10;
62591;PMS5003;48659;41.622;2.276;2022-07-12T14:47:27;9;9;
62591;PMS5003;48659;41.622;2.276;2022-07-12T14:49:54;14;14;
62591;PMS5003;48659;41.622;2.276;2022-07-12T14:52:22;31;27;
62591;PMS5003;48659;41.622;2.276;2022-07-12T14:54:49;12;11;
62591;PMS5003;48659;41.622;2.276;2022-07-12T14:57:17;9;9;
62591;PMS5003;48659;41.622;2.276;2022-07-12T14:59:44;12;10;
62591;PMS5003;48659;41.622;2.276;2022-07-12T15:02:11;10;10;
62591;PMS5003;48659;41.622;2.276;2022-07-12T15:04:39;12;10;
62591;PMS5003;48659;41.622;2.276;2022-07-12T15:07:06;9;9;
62591;PMS5003;48659;41.622;2.276;2022-07-12T15:09:34;10;10;
62591;PMS5003;48659;41.622;2.276;2022-07-12T15:12:02;8;8;
62591;PMS5003;48659;41.622;2.276;2022-07-12T15:14:30;14;14;
62591;PMS5003;48659;41.622;2.276;2022-07-12T15:16:58;9;9;
62591;PMS5003;48659;41.622;2.276;2022-07-12T15:19:26;11;11;
62591;PMS5003;48659;41.622;2.276;2022-07-12T15:21:53;9;9;
62591;PMS5003;48659;41.622;2.276;2022-07-12T15:24:21;9;9;
62591;PMS5003;48659;41.622;2.276;2022-07-12T15:26:48;9;8;
62591;PMS5003;48659;41.622;2.276;2022-07-12T15:29:16;11;8;
62591;PMS5003;48659;41.622;2.276;2022-07-12T15:31:44;10;10;
62591;PMS5003;48659;41.622;2.276;2022-07-12T15:34:12;9;9;
62591;PMS5003;48659;41.622;2.276;2022-07-12T15:36:39;9;9;
62591;PMS5003;48659;41.622;2.276;2022-07-12T15:39:06;9;9;
62591;PMS5003;48659;41.622;2.276;2022-07-12T15:41:34;7;7;
62591;PMS5003;48659;41.622;2.276;2022-07-12T15:44:02;10;9;
62591;PMS5003;48659;41.622;2.276;2022-07-12T15:46:29;8;8;
62591;PMS5003;48659;41.622;2.276;2022-07-12T15:48:58;8;8;
62591;PMS5003;48659;41.622;2.276;2022-07-12T15:51:26;9;8;
62591;PMS5003;48659;41.622;2.276;2022-07-12T15:53:53;9;8;
62591;PMS5003;48659;41.622;2.276;2022-07-12T15:56:21;9;8;
62591;PMS5003;48659;41.622;2.276;2022-07-12T15:58:48;8;8;
62591;PMS5003;48659;41.622;2.276;2022-07-12T16:01:15;7;7;
62591;PMS5003;48659;41.622;2.276;2022-07-12T16:03:42;11;10;
62591;PMS5003;48659;41.622;2.276;2022-07-12T16:06:10;9;9;
62591;PMS5003;48659;41.622;2.276;2022-07-12T16:08:38;14;14;
62591;PMS5003;48659;41.622;2.276;2022-07-12T16:11:06;10;9;
62591;PMS5003;48659;41.622;2.276;2022-07-12T16:13:41;10;10;
62591;PMS5003;48659;41.622;2.276;2022-07-12T16:16:09;9;9;
62591;PMS5003;48659;41.622;2.276;2022-07-12T16:18:36;11;11;
62591;PMS5003;48659;41.622;2.276;2022-07-12T16:21:03;12;10;
62591;PMS5003;48659;41.622;2.276;2022-07-12T16:23:31;7;7;
62591;PMS5003;48659;41.622;2.276;2022-07-12T16:25:59;8;8;
62591;PMS5003;48659;41.622;2.276;2022-07-12T16:28:26;9;9;